createdAt,value
2019-02-18T00:01:21.520Z,6.17
2019-02-18T00:06:41.396Z,14.50
2019-02-18T00:12:00.551Z,11.40
2019-02-18T00:17:20.020Z,30.50
2019-02-18T00:22:39.440Z,5.87
2019-02-18T00:27:59.383Z,31.20
2019-02-18T00:33:18.528Z,8.17
2019-02-18T00:38:37.799Z,3.53
2019-02-18T00:43:57.761Z,4.90
2019-02-18T00:49:17.320Z,24.07
2019-02-18T00:54:36.909Z,4.50
2019-02-18T00:59:56.368Z,4.80
2019-02-18T01:05:15.610Z,5.23
2019-02-18T01:10:35.469Z,8.10
2019-02-18T01:15:55.381Z,6.40
2019-02-18T01:21:14.770Z,2.17
2019-02-18T01:26:34.141Z,3.63
2019-02-18T01:31:55.157Z,8.20
2019-02-18T01:37:15.076Z,8.50
2019-02-18T01:42:34.808Z,3.30
2019-02-18T01:47:55.054Z,5.60
2019-02-18T01:53:14.160Z,1.70
2019-02-18T01:58:33.208Z,3.07
2019-02-18T02:03:52.427Z,5.83
2019-02-18T02:09:12.779Z,10.77
2019-02-18T02:14:33.332Z,14.80
2019-02-18T02:19:52.887Z,4.07
2019-02-18T02:25:12.344Z,6.43
2019-02-18T02:30:32.709Z,3.50
2019-02-18T02:35:52.800Z,1.30
2019-02-18T02:41:12.407Z,3.77
2019-02-18T02:46:33.075Z,2.33
2019-02-18T02:51:52.160Z,3.50
2019-02-18T02:57:11.448Z,3.13
2019-02-18T03:02:30.561Z,2.47
2019-02-18T03:07:49.795Z,2.53
2019-02-18T03:13:09.666Z,4.80
2019-02-18T03:18:30.579Z,2.90
2019-02-18T03:23:50.228Z,1.70
2019-02-18T03:29:59.852Z,3.37
2019-02-18T03:35:20.068Z,1.73
2019-02-18T03:40:39.355Z,2.53
2019-02-18T03:45:58.952Z,1.63
2019-02-18T03:51:18.225Z,1.63
2019-02-18T03:56:38.528Z,5.07
2019-02-18T04:01:57.584Z,3.83
2019-02-18T04:07:17.296Z,3.67
2019-02-18T04:12:37.447Z,3.83
2019-02-18T04:17:56.808Z,2.43
2019-02-18T04:23:17.125Z,8.77
2019-02-18T04:28:36.285Z,6.43
2019-02-18T04:33:55.434Z,7.03
2019-02-18T04:39:14.906Z,7.43
2019-02-18T04:44:34.209Z,5.03
2019-02-18T04:49:53.389Z,2.60
2019-02-18T04:55:13.092Z,6.97
2019-02-18T05:00:32.388Z,5.20
2019-02-18T05:05:52.362Z,9.03
2019-02-18T05:11:12.443Z,3.60
2019-02-18T05:16:31.979Z,2.50
2019-02-18T05:21:51.478Z,5.57
2019-02-18T05:27:11.397Z,6.37
2019-02-18T05:32:30.949Z,3.00
2019-02-18T05:37:50.079Z,3.10
2019-02-18T05:43:09.306Z,8.73
2019-02-18T05:48:29.398Z,3.03
2019-02-18T05:53:48.710Z,4.87
2019-02-18T05:59:08.409Z,7.67
2019-02-18T06:04:28.099Z,13.80
2019-02-18T06:09:48.709Z,6.57
2019-02-18T06:15:08.651Z,8.50
2019-02-18T06:20:28.268Z,14.03
2019-02-18T06:25:47.609Z,17.33
2019-02-18T06:31:07.191Z,6.87
2019-02-18T06:36:26.224Z,6.93
2019-02-18T06:41:46.041Z,11.80
2019-02-18T06:47:12.862Z,4.20
2019-02-18T06:52:32.722Z,9.47
2019-02-18T06:58:16.891Z,15.33
2019-02-18T07:03:49.171Z,26.47
2019-02-18T07:09:29.125Z,21.00
2019-02-18T07:14:48.271Z,17.90
2019-02-18T07:20:09.197Z,21.87
2019-02-18T07:25:29.034Z,14.93
2019-02-18T07:30:48.901Z,28.80
2019-02-18T07:36:08.401Z,8.10
2019-02-18T07:41:27.457Z,6.43
2019-02-18T07:46:47.692Z,6.43
2019-02-18T07:52:06.925Z,11.93
2019-02-18T07:57:26.208Z,9.60
2019-02-18T08:02:45.451Z,8.10
2019-02-18T08:08:04.678Z,5.23
2019-02-18T08:13:26.718Z,5.47
2019-02-18T08:18:44.615Z,3.93
2019-02-18T08:24:03.620Z,8.53
2019-02-18T08:29:23.200Z,4.90
2019-02-18T08:34:43.124Z,5.63
2019-02-18T08:40:02.670Z,11.30
2019-02-18T08:45:22.041Z,5.03
2019-02-18T08:50:42.399Z,6.20
2019-02-18T08:56:02.561Z,4.70
2019-02-18T09:01:22.072Z,7.07
2019-02-18T09:06:42.543Z,5.27
2019-02-18T09:12:01.721Z,8.13
2019-02-18T09:17:21.240Z,12.20
2019-02-18T09:22:51.895Z,8.80
2019-02-18T09:28:10.984Z,8.33
2019-02-18T09:33:30.082Z,14.03
2019-02-18T09:38:49.460Z,7.33
2019-02-18T09:44:08.633Z,11.43
2019-02-18T09:49:27.993Z,4.57
2019-02-18T09:54:47.202Z,6.27
2019-02-18T10:00:06.448Z,9.10
2019-02-18T10:05:26.005Z,7.80
2019-02-18T10:10:55.341Z,11.13
2019-02-18T10:16:04.959Z,17.23
2019-02-18T10:21:24.463Z,13.53
2019-02-18T10:26:43.725Z,8.67
2019-02-18T10:32:03.617Z,7.53
2019-02-18T10:37:24.110Z,12.53
2019-02-18T10:42:43.524Z,8.83
2019-02-18T10:48:03.996Z,12.37
2019-02-18T10:53:23.710Z,7.47
2019-02-18T10:58:43.044Z,6.97
2019-02-18T11:04:02.853Z,11.07
2019-02-18T11:09:22.048Z,9.27
2019-02-18T11:14:42.304Z,9.40
2019-02-18T11:20:01.905Z,11.07
2019-02-18T11:25:22.019Z,5.50
2019-02-18T11:30:41.347Z,10.77
2019-02-18T11:36:00.777Z,6.13
2019-02-18T11:41:27.089Z,9.27
2019-02-18T11:46:40.675Z,8.53
2019-02-18T11:52:00.218Z,16.27
2019-02-18T11:57:20.767Z,6.97
2019-02-18T12:02:39.807Z,7.73
2019-02-18T12:07:59.240Z,9.17
2019-02-18T12:13:18.380Z,14.73
2019-02-18T12:18:38.947Z,12.10
2019-02-18T12:23:58.157Z,10.40
2019-02-18T12:29:26.262Z,15.27
2019-02-18T12:34:37.307Z,10.30
2019-02-18T12:39:56.714Z,18.13
2019-02-18T12:45:16.494Z,15.97
2019-02-18T12:50:36.170Z,12.77
2019-02-18T12:55:56.318Z,24.17
2019-02-18T13:01:15.363Z,23.70
2019-02-18T13:06:34.614Z,12.90
2019-02-18T13:11:59.099Z,18.57
2019-02-18T13:17:15.180Z,37.73
2019-02-18T13:22:34.604Z,30.30
2019-02-18T13:27:53.959Z,28.30
2019-02-18T13:33:13.234Z,38.93
2019-02-18T13:38:33.184Z,24.37
2019-02-18T13:43:52.640Z,33.40
2019-02-18T13:49:12.040Z,27.37
2019-02-18T13:54:31.669Z,28.17
2019-02-18T13:59:51.235Z,23.07
2019-02-18T14:05:10.567Z,19.93
2019-02-18T14:10:30.014Z,24.90
2019-02-18T14:15:50.340Z,22.97
2019-02-18T14:21:09.783Z,38.03
2019-02-18T14:26:28.948Z,30.47
2019-02-18T14:31:49.199Z,30.33
2019-02-18T14:37:08.991Z,33.23
2019-02-18T14:42:29.187Z,41.93
2019-02-18T14:47:49.364Z,38.80
2019-02-18T14:53:08.739Z,38.33
2019-02-18T14:58:28.400Z,48.23
2019-02-18T15:03:47.708Z,38.77
2019-02-18T15:09:07.285Z,53.77
2019-02-18T15:14:26.644Z,43.67
2019-02-18T15:19:46.007Z,49.63
2019-02-18T15:25:05.898Z,56.50
2019-02-18T15:30:26.184Z,86.10
2019-02-18T15:35:46.122Z,91.40
2019-02-18T15:41:05.647Z,74.30
2019-02-18T15:46:24.699Z,73.30
2019-02-18T15:51:44.229Z,82.50
2019-02-18T15:57:03.975Z,81.37
2019-02-18T16:02:24.397Z,74.23
2019-02-18T16:07:44.100Z,80.63
2019-02-18T16:13:04.417Z,90.60
2019-02-18T16:18:23.578Z,84.27
2019-02-18T16:23:43.342Z,91.93
2019-02-18T16:29:03.521Z,111.73
2019-02-18T16:34:25.230Z,211.53
2019-02-18T16:39:44.809Z,167.40
2019-02-18T16:45:05.623Z,153.50
2019-02-18T16:50:25.182Z,132.03
2019-02-18T16:55:45.137Z,124.93
2019-02-18T17:01:04.722Z,130.43
2019-02-18T17:06:24.061Z,178.63
2019-02-18T17:11:43.825Z,160.33
2019-02-18T17:17:03.058Z,136.67
2019-02-18T17:22:22.800Z,138.50
2019-02-18T17:27:42.524Z,168.60
2019-02-18T17:33:02.831Z,148.97
2019-02-18T17:38:23.882Z,211.10
2019-02-18T17:43:44.079Z,107.93
2019-02-18T17:49:04.716Z,94.27
2019-02-18T17:54:24.581Z,163.17
2019-02-18T17:59:43.977Z,401.70
2019-02-18T18:05:04.422Z,360.60
2019-02-18T18:10:24.593Z,153.53
2019-02-18T18:15:45.039Z,134.50
2019-02-18T18:21:05.342Z,112.13
2019-02-18T18:26:25.362Z,130.73
2019-02-18T18:31:46.062Z,123.40
2019-02-18T18:37:06.542Z,118.83
2019-02-18T18:42:26.311Z,134.70
2019-02-18T18:47:46.519Z,162.67
2019-02-18T18:53:06.276Z,271.60
2019-02-18T18:58:27.025Z,137.87
2019-02-18T19:03:47.161Z,129.63
2019-02-18T19:09:07.122Z,302.67
2019-02-18T19:14:26.819Z,342.07
2019-02-18T19:19:47.440Z,135.67
2019-02-18T19:25:07.070Z,110.70
2019-02-18T19:30:28.606Z,289.07
2019-02-18T19:35:48.144Z,162.37
2019-02-18T19:41:08.488Z,141.53
2019-02-18T19:46:28.728Z,237.00
2019-02-18T19:51:49.184Z,310.13
2019-02-18T19:57:09.835Z,166.07
2019-02-18T20:02:31.144Z,293.03
2019-02-18T20:07:50.779Z,295.90
2019-02-18T20:13:11.293Z,195.10
2019-02-18T20:18:30.702Z,580.33
2019-02-18T20:23:51.036Z,580.40
2019-02-18T20:29:11.331Z,182.07
2019-02-18T20:34:31.192Z,177.13
2019-02-18T20:39:51.512Z,192.80
2019-02-18T20:45:11.295Z,179.77
2019-02-18T20:50:31.814Z,190.53
2019-02-18T20:55:51.533Z,191.93
2019-02-18T21:01:13.556Z,135.50
2019-02-18T21:06:33.517Z,285.90
2019-02-18T21:11:54.892Z,147.77
2019-02-18T21:17:15.543Z,189.43
2019-02-18T21:22:35.259Z,165.20
2019-02-18T21:27:55.391Z,147.20
2019-02-18T21:33:17.953Z,135.40
2019-02-18T21:38:36.917Z,150.53
2019-02-18T21:43:56.189Z,156.93
2019-02-18T21:49:17.279Z,157.20
2019-02-18T21:54:36.682Z,127.40
2019-02-18T21:59:56.951Z,155.63
2019-02-18T22:05:16.654Z,652.37
2019-02-18T22:10:38.609Z,174.13
2019-02-18T22:15:58.210Z,433.47
2019-02-18T22:21:18.732Z,174.70
2019-02-18T22:26:38.629Z,609.20
2019-02-18T22:31:58.646Z,325.63
2019-02-18T22:37:19.468Z,190.33
2019-02-18T22:42:39.723Z,420.03
2019-02-18T22:48:00.325Z,259.20
2019-02-18T22:53:20.317Z,225.97
2019-02-18T22:58:39.667Z,161.57
2019-02-18T23:03:59.099Z,261.43
2019-02-18T23:09:18.208Z,643.73
2019-02-18T23:14:37.593Z,192.90
2019-02-18T23:19:56.853Z,315.77
2019-02-18T23:25:15.994Z,882.80
2019-02-18T23:30:35.894Z,673.90
2019-02-18T23:35:56.382Z,488.10
2019-02-18T23:41:15.975Z,230.90
2019-02-18T23:46:35.759Z,239.83
2019-02-18T23:51:55.224Z,242.53
2019-02-18T23:57:15.062Z,287.03
